Main page
METAR-TAF:

METAR-TAF

Airports :

Oberpfaffenhofen, Germany

latitude: 48-05N, longitude: 011-17E, elevation: 600 m

Current weather observation

The report was made 32 minutes ago, at 15:50 UTC
Wind 19 kt from the Southwest
Temperature 3°C
Humidity 81%
Pressure 1007 hPa
Visibility 10 km or more
Scattered clouds at a height of 5100 ft
Broken clouds at a height of 7000 ft
light rain

METAR: EDMO 171550Z 23019KT 9999 -RA SCT051 BKN070 03/M00 Q1007

Time: 17:22 (16:22 UTC)

Forecast

The report was made 2 hours and 22 minutes ago, at 14:00 UTC
Forecast valid from 17 at 15 UTC to 17 at 24 UTC
Wind 15 kt from the West/Southwest with gusts up to 25 kt
Visibility 10 km or more
Broken clouds at a height of 2500 ft
Temporary
from 17 at 20 UTC to 17 at 24 UTC
Visibility: 2000 m
Broken clouds at a height of 1500 ft, Towering cumulus.
snow showers

TAF: EDMO 171400Z 1715/1724 24015G25KT 9999 BKN025 TEMPO 1720/1724 2000 SHSN BKN015TCU

Weather observations and forecasts of more than 4000 airports (METAR and TAF reports).

The available stations are represented by yellow and red dots on the map.

Hover mouse over dot to see the name of the station.

Then click to see weather observations and forecasts.

To change the map : click on the green buttons with a black cross to zoom in, on the green button with a dash to zoom out, or on the green arrows for adjacent maps.


METAR-TAF: